sensor_id;sensor_type;location;lat;lon;timestamp;P1;durP1;ratioP1;P2;durP2;ratioP2
49824;SDS011;35714;55.708;37.478;2023-04-24T00:01:14;17.23;;;7.07;;
49824;SDS011;35714;55.708;37.478;2023-04-24T00:03:40;14.50;;;6.50;;
49824;SDS011;35714;55.708;37.478;2023-04-24T00:06:06;15.05;;;7.20;;
49824;SDS011;35714;55.708;37.478;2023-04-24T00:08:34;14.93;;;7.07;;
49824;SDS011;35714;55.708;37.478;2023-04-24T00:11:00;14.48;;;7.30;;
49824;SDS011;35714;55.708;37.478;2023-04-24T00:13:25;16.35;;;6.35;;
49824;SDS011;35714;55.708;37.478;2023-04-24T00:15:54;15.70;;;7.13;;
49824;SDS011;35714;55.708;37.478;2023-04-24T00:18:20;16.92;;;5.93;;
49824;SDS011;35714;55.708;37.478;2023-04-24T00:20:45;11.68;;;6.18;;
49824;SDS011;35714;55.708;37.478;2023-04-24T00:23:12;12.25;;;6.53;;
49824;SDS011;35714;55.708;37.478;2023-04-24T00:25:38;11.63;;;5.60;;
49824;SDS011;35714;55.708;37.478;2023-04-24T00:28:04;17.73;;;5.97;;
49824;SDS011;35714;55.708;37.478;2023-04-24T00:30:29;16.65;;;6.38;;
49824;SDS011;35714;55.708;37.478;2023-04-24T00:32:55;10.68;;;5.07;;
49824;SDS011;35714;55.708;37.478;2023-04-24T00:35:22;18.35;;;5.90;;
49824;SDS011;35714;55.708;37.478;2023-04-24T00:37:48;15.32;;;6.20;;
49824;SDS011;35714;55.708;37.478;2023-04-24T00:40:15;13.35;;;6.35;;
49824;SDS011;35714;55.708;37.478;2023-04-24T00:42:43;10.52;;;5.55;;
49824;SDS011;35714;55.708;37.478;2023-04-24T00:45:10;15.23;;;6.10;;
49824;SDS011;35714;55.708;37.478;2023-04-24T00:47:36;14.23;;;6.03;;
49824;SDS011;35714;55.708;37.478;2023-04-24T00:50:03;10.73;;;5.57;;
49824;SDS011;35714;55.708;37.478;2023-04-24T00:52:30;14.50;;;6.22;;
49824;SDS011;35714;55.708;37.478;2023-04-24T00:54:58;15.63;;;6.10;;
49824;SDS011;35714;55.708;37.478;2023-04-24T00:57:23;9.50;;;5.15;;
49824;SDS011;35714;55.708;37.478;2023-04-24T00:59:51;17.70;;;5.85;;
49824;SDS011;35714;55.708;37.478;2023-04-24T01:02:17;10.68;;;5.63;;
49824;SDS011;35714;55.708;37.478;2023-04-24T01:04:44;13.30;;;5.65;;
49824;SDS011;35714;55.708;37.478;2023-04-24T01:07:09;12.20;;;5.68;;
49824;SDS011;35714;55.708;37.478;2023-04-24T01:09:40;11.20;;;5.20;;
49824;SDS011;35714;55.708;37.478;2023-04-24T01:12:09;11.38;;;5.38;;
49824;SDS011;35714;55.708;37.478;2023-04-24T01:14:37;9.15;;;5.80;;
49824;SDS011;35714;55.708;37.478;2023-04-24T01:17:03;9.80;;;5.60;;
49824;SDS011;35714;55.708;37.478;2023-04-24T01:19:29;13.70;;;6.32;;
49824;SDS011;35714;55.708;37.478;2023-04-24T01:21:57;11.73;;;5.97;;
49824;SDS011;35714;55.708;37.478;2023-04-24T01:24:24;11.10;;;5.70;;
49824;SDS011;35714;55.708;37.478;2023-04-24T01:26:50;10.18;;;5.80;;
49824;SDS011;35714;55.708;37.478;2023-04-24T01:29:18;15.35;;;5.78;;
49824;SDS011;35714;55.708;37.478;2023-04-24T01:31:44;12.15;;;6.22;;
49824;SDS011;35714;55.708;37.478;2023-04-24T01:34:10;11.75;;;5.65;;
49824;SDS011;35714;55.708;37.478;2023-04-24T01:36:35;11.07;;;5.53;;
49824;SDS011;35714;55.708;37.478;2023-04-24T01:39:02;10.55;;;5.45;;
49824;SDS011;35714;55.708;37.478;2023-04-24T01:41:29;12.15;;;5.88;;
49824;SDS011;35714;55.708;37.478;2023-04-24T01:43:55;11.20;;;6.10;;
49824;SDS011;35714;55.708;37.478;2023-04-24T01:46:22;9.65;;;5.00;;
49824;SDS011;35714;55.708;37.478;2023-04-24T01:48:48;9.90;;;5.47;;
49824;SDS011;35714;55.708;37.478;2023-04-24T01:51:14;13.10;;;5.72;;
49824;SDS011;35714;55.708;37.478;2023-04-24T01:53:39;11.52;;;5.70;;
49824;SDS011;35714;55.708;37.478;2023-04-24T01:56:05;12.43;;;4.93;;
49824;SDS011;35714;55.708;37.478;2023-04-24T01:58:32;10.85;;;5.57;;
49824;SDS011;35714;55.708;37.478;2023-04-24T02:00:57;10.73;;;5.20;;
49824;SDS011;35714;55.708;37.478;2023-04-24T02:03:25;10.43;;;5.45;;
49824;SDS011;35714;55.708;37.478;2023-04-24T02:05:51;13.00;;;6.13;;
49824;SDS011;35714;55.708;37.478;2023-04-24T02:08:18;15.38;;;6.13;;
49824;SDS011;35714;55.708;37.478;2023-04-24T02:10:44;10.00;;;5.40;;
49824;SDS011;35714;55.708;37.478;2023-04-24T02:13:10;12.27;;;5.53;;
49824;SDS011;35714;55.708;37.478;2023-04-24T02:15:36;11.73;;;6.03;;
49824;SDS011;35714;55.708;37.478;2023-04-24T02:18:03;11.88;;;6.25;;
49824;SDS011;35714;55.708;37.478;2023-04-24T02:20:31;9.68;;;5.88;;
49824;SDS011;35714;55.708;37.478;2023-04-24T02:22:59;13.55;;;6.13;;
49824;SDS011;35714;55.708;37.478;2023-04-24T02:25:25;9.32;;;5.78;;
49824;SDS011;35714;55.708;37.478;2023-04-24T02:27:54;10.50;;;5.75;;
49824;SDS011;35714;55.708;37.478;2023-04-24T02:30:19;17.48;;;6.78;;
49824;SDS011;35714;55.708;37.478;2023-04-24T02:32:45;14.82;;;6.03;;
49824;SDS011;35714;55.708;37.478;2023-04-24T02:35:11;12.65;;;5.72;;
49824;SDS011;35714;55.708;37.478;2023-04-24T02:37:37;12.68;;;6.00;;
49824;SDS011;35714;55.708;37.478;2023-04-24T02:40:02;11.25;;;5.88;;
49824;SDS011;35714;55.708;37.478;2023-04-24T02:42:30;11.23;;;5.82;;
49824;SDS011;35714;55.708;37.478;2023-04-24T02:44:56;12.35;;;6.03;;
49824;SDS011;35714;55.708;37.478;2023-04-24T02:47:22;10.85;;;5.68;;
49824;SDS011;35714;55.708;37.478;2023-04-24T02:49:48;12.95;;;6.45;;
49824;SDS011;35714;55.708;37.478;2023-04-24T02:52:14;9.77;;;6.07;;
49824;SDS011;35714;55.708;37.478;2023-04-24T02:54:40;9.85;;;5.68;;
49824;SDS011;35714;55.708;37.478;2023-04-24T02:57:05;10.75;;;5.50;;
49824;SDS011;35714;55.708;37.478;2023-04-24T02:59:31;11.73;;;5.40;;
49824;SDS011;35714;55.708;37.478;2023-04-24T03:01:57;15.50;;;6.15;;
49824;SDS011;35714;55.708;37.478;2023-04-24T03:04:23;11.32;;;5.13;;
49824;SDS011;35714;55.708;37.478;2023-04-24T03:06:48;13.10;;;6.05;;
49824;SDS011;35714;55.708;37.478;2023-04-24T03:09:14;10.93;;;5.35;;
49824;SDS011;35714;55.708;37.478;2023-04-24T03:11:40;12.32;;;6.05;;
49824;SDS011;35714;55.708;37.478;2023-04-24T03:14:07;12.23;;;5.20;;
49824;SDS011;35714;55.708;37.478;2023-04-24T03:16:33;11.90;;;5.43;;
49824;SDS011;35714;55.708;37.478;2023-04-24T03:18:58;9.40;;;5.82;;
49824;SDS011;35714;55.708;37.478;2023-04-24T03:21:27;13.85;;;5.80;;
49824;SDS011;35714;55.708;37.478;2023-04-24T03:23:53;9.95;;;5.55;;
49824;SDS011;35714;55.708;37.478;2023-04-24T03:26:19;12.65;;;5.32;;
49824;SDS011;35714;55.708;37.478;2023-04-24T03:28:59;8.30;;;5.13;;
49824;SDS011;35714;55.708;37.478;2023-04-24T03:31:25;10.07;;;4.90;;
49824;SDS011;35714;55.708;37.478;2023-04-24T03:33:51;13.98;;;5.85;;
49824;SDS011;35714;55.708;37.478;2023-04-24T03:36:16;9.48;;;5.28;;
49824;SDS011;35714;55.708;37.478;2023-04-24T03:38:44;10.38;;;5.47;;
49824;SDS011;35714;55.708;37.478;2023-04-24T03:41:21;9.77;;;4.82;;
49824;SDS011;35714;55.708;37.478;2023-04-24T03:43:54;9.07;;;4.95;;
49824;SDS011;35714;55.708;37.478;2023-04-24T03:46:20;18.42;;;5.70;;
49824;SDS011;35714;55.708;37.478;2023-04-24T03:48:52;11.32;;;5.90;;
49824;SDS011;35714;55.708;37.478;2023-04-24T03:51:21;11.35;;;5.15;;
49824;SDS011;35714;55.708;37.478;2023-04-24T03:53:50;9.25;;;4.95;;
49824;SDS011;35714;55.708;37.478;2023-04-24T03:56:19;13.50;;;5.50;;
49824;SDS011;35714;55.708;37.478;2023-04-24T03:58:46;11.13;;;5.25;;
49824;SDS011;35714;55.708;37.478;2023-04-24T04:01:12;10.73;;;5.47;;
49824;SDS011;35714;55.708;37.478;2023-04-24T04:03:57;11.30;;;5.73;;
49824;SDS011;35714;55.708;37.478;2023-04-24T04:06:24;17.98;;;5.88;;
49824;SDS011;35714;55.708;37.478;2023-04-24T04:08:52;10.55;;;5.93;;
49824;SDS011;35714;55.708;37.478;2023-04-24T04:11:17;10.60;;;6.05;;
49824;SDS011;35714;55.708;37.478;2023-04-24T04:13:44;12.10;;;5.47;;
49824;SDS011;35714;55.708;37.478;2023-04-24T04:16:11;10.20;;;5.28;;
49824;SDS011;35714;55.708;37.478;2023-04-24T04:18:37;8.68;;;5.63;;
49824;SDS011;35714;55.708;37.478;2023-04-24T04:21:05;8.57;;;4.90;;
49824;SDS011;35714;55.708;37.478;2023-04-24T04:23:31;13.60;;;5.20;;
49824;SDS011;35714;55.708;37.478;2023-04-24T04:26:16;11.55;;;5.55;;
49824;SDS011;35714;55.708;37.478;2023-04-24T04:29:05;16.15;;;5.47;;
49824;SDS011;35714;55.708;37.478;2023-04-24T04:31:33;15.15;;;5.35;;
49824;SDS011;35714;55.708;37.478;2023-04-24T04:34:04;10.38;;;5.72;;
49824;SDS011;35714;55.708;37.478;2023-04-24T04:36:31;14.73;;;5.95;;
49824;SDS011;35714;55.708;37.478;2023-04-24T04:39:12;12.07;;;5.18;;
49824;SDS011;35714;55.708;37.478;2023-04-24T04:42:05;13.93;;;6.07;;
49824;SDS011;35714;55.708;37.478;2023-04-24T04:44:39;11.55;;;5.72;;
49824;SDS011;35714;55.708;37.478;2023-04-24T04:47:06;10.13;;;5.55;;
49824;SDS011;35714;55.708;37.478;2023-04-24T04:49:35;10.00;;;5.68;;
49824;SDS011;35714;55.708;37.478;2023-04-24T04:52:02;12.50;;;6.57;;
49824;SDS011;35714;55.708;37.478;2023-04-24T04:54:28;12.30;;;5.70;;
49824;SDS011;35714;55.708;37.478;2023-04-24T04:56:55;12.45;;;4.88;;
49824;SDS011;35714;55.708;37.478;2023-04-24T04:59:22;18.50;;;7.18;;
49824;SDS011;35714;55.708;37.478;2023-04-24T05:01:53;11.52;;;5.63;;
49824;SDS011;35714;55.708;37.478;2023-04-24T05:04:20;10.02;;;6.13;;
49824;SDS011;35714;55.708;37.478;2023-04-24T05:06:46;9.85;;;5.45;;
49824;SDS011;35714;55.708;37.478;2023-04-24T05:09:13;11.32;;;5.78;;
49824;SDS011;35714;55.708;37.478;2023-04-24T05:11:46;12.63;;;5.15;;
49824;SDS011;35714;55.708;37.478;2023-04-24T05:14:11;15.52;;;5.35;;
49824;SDS011;35714;55.708;37.478;2023-04-24T05:16:42;15.02;;;5.40;;
49824;SDS011;35714;55.708;37.478;2023-04-24T05:19:11;14.32;;;5.53;;
49824;SDS011;35714;55.708;37.478;2023-04-24T05:21:40;10.98;;;5.43;;
49824;SDS011;35714;55.708;37.478;2023-04-24T05:24:07;12.38;;;5.80;;
49824;SDS011;35714;55.708;37.478;2023-04-24T05:27:02;12.73;;;5.68;;
49824;SDS011;35714;55.708;37.478;2023-04-24T05:29:37;16.60;;;4.80;;
49824;SDS011;35714;55.708;37.478;2023-04-24T05:32:04;12.90;;;5.68;;
49824;SDS011;35714;55.708;37.478;2023-04-24T05:34:31;9.85;;;4.68;;
49824;SDS011;35714;55.708;37.478;2023-04-24T05:36:57;10.80;;;5.18;;
49824;SDS011;35714;55.708;37.478;2023-04-24T05:39:23;8.57;;;4.47;;
49824;SDS011;35714;55.708;37.478;2023-04-24T05:41:50;8.32;;;4.57;;
49824;SDS011;35714;55.708;37.478;2023-04-24T05:44:16;9.43;;;4.50;;
49824;SDS011;35714;55.708;37.478;2023-04-24T05:46:42;12.15;;;4.80;;
49824;SDS011;35714;55.708;37.478;2023-04-24T05:49:09;11.05;;;4.97;;
49824;SDS011;35714;55.708;37.478;2023-04-24T05:51:35;14.32;;;4.53;;
49824;SDS011;35714;55.708;37.478;2023-04-24T05:54:01;7.78;;;4.25;;
49824;SDS011;35714;55.708;37.478;2023-04-24T05:56:28;9.93;;;5.25;;
49824;SDS011;35714;55.708;37.478;2023-04-24T05:58:56;11.32;;;5.97;;
49824;SDS011;35714;55.708;37.478;2023-04-24T06:01:21;11.25;;;4.82;;
49824;SDS011;35714;55.708;37.478;2023-04-24T06:03:55;12.27;;;5.07;;
49824;SDS011;35714;55.708;37.478;2023-04-24T06:06:21;11.88;;;4.93;;
49824;SDS011;35714;55.708;37.478;2023-04-24T06:08:47;9.45;;;4.63;;
49824;SDS011;35714;55.708;37.478;2023-04-24T06:11:13;10.77;;;4.72;;
49824;SDS011;35714;55.708;37.478;2023-04-24T06:13:39;8.98;;;4.95;;
49824;SDS011;35714;55.708;37.478;2023-04-24T06:16:23;14.95;;;5.40;;
49824;SDS011;35714;55.708;37.478;2023-04-24T06:18:56;11.98;;;4.82;;
49824;SDS011;35714;55.708;37.478;2023-04-24T06:21:22;9.07;;;4.57;;
49824;SDS011;35714;55.708;37.478;2023-04-24T06:23:47;13.55;;;4.78;;
49824;SDS011;35714;55.708;37.478;2023-04-24T06:26:14;10.50;;;4.35;;
49824;SDS011;35714;55.708;37.478;2023-04-24T06:28:40;14.40;;;5.07;;
49824;SDS011;35714;55.708;37.478;2023-04-24T06:31:06;10.73;;;4.40;;
49824;SDS011;35714;55.708;37.478;2023-04-24T06:33:32;10.60;;;4.35;;
49824;SDS011;35714;55.708;37.478;2023-04-24T06:35:57;9.25;;;4.53;;
49824;SDS011;35714;55.708;37.478;2023-04-24T06:38:23;12.55;;;4.43;;
49824;SDS011;35714;55.708;37.478;2023-04-24T06:40:49;13.25;;;4.70;;
49824;SDS011;35714;55.708;37.478;2023-04-24T06:43:15;9.48;;;4.00;;
49824;SDS011;35714;55.708;37.478;2023-04-24T06:45:41;12.05;;;4.57;;
49824;SDS011;35714;55.708;37.478;2023-04-24T06:48:08;13.75;;;4.95;;
49824;SDS011;35714;55.708;37.478;2023-04-24T06:50:34;10.45;;;4.35;;
49824;SDS011;35714;55.708;37.478;2023-04-24T06:53:00;9.80;;;4.28;;
49824;SDS011;35714;55.708;37.478;2023-04-24T06:55:26;11.73;;;4.38;;
49824;SDS011;35714;55.708;37.478;2023-04-24T06:57:51;10.75;;;4.47;;
49824;SDS011;35714;55.708;37.478;2023-04-24T07:00:17;11.13;;;4.60;;
49824;SDS011;35714;55.708;37.478;2023-04-24T07:02:43;13.80;;;4.47;;
49824;SDS011;35714;55.708;37.478;2023-04-24T07:05:08;6.80;;;3.92;;
49824;SDS011;35714;55.708;37.478;2023-04-24T07:07:34;11.75;;;4.65;;
49824;SDS011;35714;55.708;37.478;2023-04-24T07:10:03;9.75;;;4.00;;
49824;SDS011;35714;55.708;37.478;2023-04-24T07:12:30;11.63;;;4.10;;
49824;SDS011;35714;55.708;37.478;2023-04-24T07:14:56;8.43;;;3.88;;
49824;SDS011;35714;55.708;37.478;2023-04-24T07:17:21;8.50;;;3.95;;
49824;SDS011;35714;55.708;37.478;2023-04-24T07:19:47;10.25;;;4.03;;
49824;SDS011;35714;55.708;37.478;2023-04-24T07:22:12;11.95;;;3.95;;
49824;SDS011;35714;55.708;37.478;2023-04-24T07:24:43;8.02;;;3.65;;
49824;SDS011;35714;55.708;37.478;2023-04-24T07:27:09;10.82;;;4.22;;
49824;SDS011;35714;55.708;37.478;2023-04-24T07:29:35;9.77;;;3.97;;
49824;SDS011;35714;55.708;37.478;2023-04-24T07:32:00;11.23;;;3.95;;
49824;SDS011;35714;55.708;37.478;2023-04-24T07:34:27;12.50;;;3.92;;
49824;SDS011;35714;55.708;37.478;2023-04-24T07:36:52;19.20;;;4.80;;
49824;SDS011;35714;55.708;37.478;2023-04-24T07:39:18;11.63;;;3.28;;
49824;SDS011;35714;55.708;37.478;2023-04-24T07:41:44;8.75;;;3.58;;
49824;SDS011;35714;55.708;37.478;2023-04-24T07:44:10;7.53;;;3.42;;
49824;SDS011;35714;55.708;37.478;2023-04-24T07:46:35;7.88;;;3.65;;
49824;SDS011;35714;55.708;37.478;2023-04-24T07:49:01;9.27;;;3.47;;
49824;SDS011;35714;55.708;37.478;2023-04-24T07:51:27;7.50;;;3.05;;
49824;SDS011;35714;55.708;37.478;2023-04-24T07:53:53;7.28;;;3.20;;
49824;SDS011;35714;55.708;37.478;2023-04-24T07:56:20;10.68;;;3.50;;
49824;SDS011;35714;55.708;37.478;2023-04-24T07:58:46;8.43;;;3.20;;
49824;SDS011;35714;55.708;37.478;2023-04-24T08:01:12;6.32;;;3.10;;
49824;SDS011;35714;55.708;37.478;2023-04-24T08:03:37;6.28;;;3.45;;
49824;SDS011;35714;55.708;37.478;2023-04-24T08:06:03;18.55;;;3.30;;
49824;SDS011;35714;55.708;37.478;2023-04-24T08:08:29;6.80;;;2.97;;
49824;SDS011;35714;55.708;37.478;2023-04-24T08:10:55;8.63;;;3.40;;
49824;SDS011;35714;55.708;37.478;2023-04-24T08:13:21;6.53;;;2.97;;
49824;SDS011;35714;55.708;37.478;2023-04-24T08:15:47;5.13;;;2.83;;
49824;SDS011;35714;55.708;37.478;2023-04-24T08:18:12;6.97;;;3.20;;
49824;SDS011;35714;55.708;37.478;2023-04-24T08:20:39;10.57;;;3.45;;
49824;SDS011;35714;55.708;37.478;2023-04-24T08:23:04;11.13;;;3.22;;
49824;SDS011;35714;55.708;37.478;2023-04-24T08:25:30;7.18;;;3.00;;
49824;SDS011;35714;55.708;37.478;2023-04-24T08:27:56;5.65;;;3.05;;
49824;SDS011;35714;55.708;37.478;2023-04-24T08:30:21;5.47;;;3.03;;
49824;SDS011;35714;55.708;37.478;2023-04-24T08:32:47;4.60;;;2.70;;
49824;SDS011;35714;55.708;37.478;2023-04-24T08:35:13;4.63;;;2.95;;
49824;SDS011;35714;55.708;37.478;2023-04-24T08:37:39;4.80;;;2.72;;
49824;SDS011;35714;55.708;37.478;2023-04-24T08:40:11;6.85;;;3.67;;
49824;SDS011;35714;55.708;37.478;2023-04-24T08:42:40;8.43;;;3.40;;
49824;SDS011;35714;55.708;37.478;2023-04-24T08:45:07;6.35;;;2.90;;
49824;SDS011;35714;55.708;37.478;2023-04-24T08:47:34;8.32;;;3.30;;
49824;SDS011;35714;55.708;37.478;2023-04-24T08:50:02;7.82;;;3.10;;
49824;SDS011;35714;55.708;37.478;2023-04-24T08:52:34;6.28;;;2.80;;
49824;SDS011;35714;55.708;37.478;2023-04-24T08:55:00;5.75;;;2.60;;
49824;SDS011;35714;55.708;37.478;2023-04-24T08:57:31;7.90;;;3.35;;
49824;SDS011;35714;55.708;37.478;2023-04-24T08:59:58;7.93;;;2.90;;
49824;SDS011;35714;55.708;37.478;2023-04-24T09:02:25;9.90;;;3.00;;
49824;SDS011;35714;55.708;37.478;2023-04-24T09:04:51;5.22;;;2.60;;
49824;SDS011;35714;55.708;37.478;2023-04-24T09:07:18;7.75;;;3.72;;
49824;SDS011;35714;55.708;37.478;2023-04-24T09:09:45;13.73;;;3.38;;
49824;SDS011;35714;55.708;37.478;2023-04-24T09:12:11;8.38;;;2.80;;
49824;SDS011;35714;55.708;37.478;2023-04-24T09:14:36;7.20;;;2.83;;
49824;SDS011;35714;55.708;37.478;2023-04-24T09:17:08;5.03;;;2.97;;
49824;SDS011;35714;55.708;37.478;2023-04-24T09:19:33;5.63;;;2.95;;
49824;SDS011;35714;55.708;37.478;2023-04-24T09:21:59;5.40;;;3.00;;
49824;SDS011;35714;55.708;37.478;2023-04-24T09:24:29;5.68;;;3.38;;
49824;SDS011;35714;55.708;37.478;2023-04-24T09:26:56;5.97;;;3.00;;
49824;SDS011;35714;55.708;37.478;2023-04-24T09:29:27;9.50;;;2.72;;
49824;SDS011;35714;55.708;37.478;2023-04-24T09:31:53;5.38;;;2.90;;
49824;SDS011;35714;55.708;37.478;2023-04-24T09:34:22;11.43;;;2.78;;
49824;SDS011;35714;55.708;37.478;2023-04-24T09:36:49;6.10;;;2.78;;
49824;SDS011;35714;55.708;37.478;2023-04-24T09:39:15;4.35;;;2.50;;
49824;SDS011;35714;55.708;37.478;2023-04-24T09:41:48;5.20;;;2.45;;
49824;SDS011;35714;55.708;37.478;2023-04-24T09:44:16;5.15;;;2.63;;
49824;SDS011;35714;55.708;37.478;2023-04-24T09:46:43;4.95;;;2.50;;
49824;SDS011;35714;55.708;37.478;2023-04-24T09:49:14;5.90;;;2.58;;
49824;SDS011;35714;55.708;37.478;2023-04-24T09:51:42;6.25;;;2.97;;
49824;SDS011;35714;55.708;37.478;2023-04-24T09:57:02;4.50;;;2.75;;
49824;SDS011;35714;55.708;37.478;2023-04-24T09:59:28;5.05;;;2.53;;
49824;SDS011;35714;55.708;37.478;2023-04-24T10:01:55;4.05;;;2.17;;
49824;SDS011;35714;55.708;37.478;2023-04-24T10:04:22;4.80;;;2.50;;
49824;SDS011;35714;55.708;37.478;2023-04-24T10:06:50;4.32;;;2.50;;
49824;SDS011;35714;55.708;37.478;2023-04-24T10:09:17;5.35;;;2.83;;
49824;SDS011;35714;55.708;37.478;2023-04-24T10:11:47;5.95;;;2.60;;
49824;SDS011;35714;55.708;37.478;2023-04-24T10:14:15;4.30;;;2.47;;
49824;SDS011;35714;55.708;37.478;2023-04-24T10:16:43;4.90;;;2.40;;
49824;SDS011;35714;55.708;37.478;2023-04-24T10:19:09;5.07;;;2.60;;
49824;SDS011;35714;55.708;37.478;2023-04-24T10:21:36;5.25;;;2.53;;
49824;SDS011;35714;55.708;37.478;2023-04-24T10:24:08;4.93;;;2.70;;
49824;SDS011;35714;55.708;37.478;2023-04-24T10:26:35;4.47;;;2.30;;
49824;SDS011;35714;55.708;37.478;2023-04-24T10:29:01;9.07;;;2.55;;
49824;SDS011;35714;55.708;37.478;2023-04-24T10:31:27;7.03;;;2.80;;
49824;SDS011;35714;55.708;37.478;2023-04-24T10:33:56;6.22;;;2.80;;
49824;SDS011;35714;55.708;37.478;2023-04-24T10:36:23;4.13;;;2.20;;
49824;SDS011;35714;55.708;37.478;2023-04-24T10:38:52;4.63;;;2.42;;
49824;SDS011;35714;55.708;37.478;2023-04-24T10:41:21;4.63;;;2.40;;
49824;SDS011;35714;55.708;37.478;2023-04-24T10:44:10;7.60;;;2.65;;
49824;SDS011;35714;55.708;37.478;2023-04-24T10:46:38;9.38;;;3.20;;
49824;SDS011;35714;55.708;37.478;2023-04-24T10:49:05;7.90;;;2.67;;
49824;SDS011;35714;55.708;37.478;2023-04-24T10:51:44;6.63;;;2.40;;
49824;SDS011;35714;55.708;37.478;2023-04-24T10:56:53;7.43;;;2.67;;
49824;SDS011;35714;55.708;37.478;2023-04-24T10:59:38;6.80;;;2.95;;
49824;SDS011;35714;55.708;37.478;2023-04-24T11:02:04;5.90;;;2.92;;
49824;SDS011;35714;55.708;37.478;2023-04-24T11:04:33;5.47;;;2.30;;
49824;SDS011;35714;55.708;37.478;2023-04-24T11:07:01;4.85;;;2.45;;
49824;SDS011;35714;55.708;37.478;2023-04-24T11:09:28;5.70;;;2.95;;
49824;SDS011;35714;55.708;37.478;2023-04-24T11:12:06;6.40;;;2.60;;
49824;SDS011;35714;55.708;37.478;2023-04-24T11:20:07;11.77;;;3.20;;
49824;SDS011;35714;55.708;37.478;2023-04-24T11:22:35;6.78;;;2.38;;
49824;SDS011;35714;55.708;37.478;2023-04-24T11:25:02;6.95;;;2.60;;
49824;SDS011;35714;55.708;37.478;2023-04-24T11:27:31;9.75;;;3.05;;
49824;SDS011;35714;55.708;37.478;2023-04-24T11:30:04;6.55;;;2.35;;
49824;SDS011;35714;55.708;37.478;2023-04-24T11:32:41;5.32;;;2.17;;
49824;SDS011;35714;55.708;37.478;2023-04-24T11:35:18;3.55;;;1.90;;
49824;SDS011;35714;55.708;37.478;2023-04-24T11:37:47;5.22;;;2.45;;
49824;SDS011;35714;55.708;37.478;2023-04-24T11:40:15;7.25;;;2.22;;
49824;SDS011;35714;55.708;37.478;2023-04-24T11:42:45;9.18;;;2.83;;
49824;SDS011;35714;55.708;37.478;2023-04-24T11:45:16;5.53;;;2.63;;
49824;SDS011;35714;55.708;37.478;2023-04-24T11:47:49;7.57;;;2.63;;
49824;SDS011;35714;55.708;37.478;2023-04-24T11:50:16;4.35;;;2.30;;
49824;SDS011;35714;55.708;37.478;2023-04-24T11:52:44;8.63;;;2.88;;
49824;SDS011;35714;55.708;37.478;2023-04-24T11:57:43;8.00;;;2.25;;
49824;SDS011;35714;55.708;37.478;2023-04-24T12:00:32;4.25;;;2.20;;
49824;SDS011;35714;55.708;37.478;2023-04-24T12:05:37;4.65;;;2.20;;
49824;SDS011;35714;55.708;37.478;2023-04-24T12:08:04;6.22;;;1.95;;
49824;SDS011;35714;55.708;37.478;2023-04-24T12:10:30;7.97;;;2.45;;
49824;SDS011;35714;55.708;37.478;2023-04-24T12:12:58;9.05;;;2.22;;
49824;SDS011;35714;55.708;37.478;2023-04-24T12:15:25;7.32;;;2.42;;
49824;SDS011;35714;55.708;37.478;2023-04-24T12:17:52;4.85;;;2.72;;
49824;SDS011;35714;55.708;37.478;2023-04-24T12:20:23;7.65;;;2.58;;
49824;SDS011;35714;55.708;37.478;2023-04-24T12:22:53;4.88;;;2.20;;
49824;SDS011;35714;55.708;37.478;2023-04-24T12:25:21;11.13;;;2.65;;
49824;SDS011;35714;55.708;37.478;2023-04-24T12:28:10;8.52;;;2.35;;
49824;SDS011;35714;55.708;37.478;2023-04-24T12:30:42;5.57;;;2.30;;
49824;SDS011;35714;55.708;37.478;2023-04-24T12:33:17;6.22;;;2.65;;
49824;SDS011;35714;55.708;37.478;2023-04-24T12:35:44;5.15;;;2.25;;
49824;SDS011;35714;55.708;37.478;2023-04-24T12:38:11;5.40;;;2.15;;
49824;SDS011;35714;55.708;37.478;2023-04-24T12:41:32;8.23;;;2.50;;
49824;SDS011;35714;55.708;37.478;2023-04-24T12:43:57;6.78;;;2.00;;
49824;SDS011;35714;55.708;37.478;2023-04-24T12:46:23;4.70;;;2.50;;
49824;SDS011;35714;55.708;37.478;2023-04-24T12:48:49;3.88;;;1.98;;
49824;SDS011;35714;55.708;37.478;2023-04-24T12:51:15;6.63;;;2.30;;
49824;SDS011;35714;55.708;37.478;2023-04-24T12:53:41;4.03;;;2.17;;
49824;SDS011;35714;55.708;37.478;2023-04-24T12:56:07;6.18;;;1.85;;
49824;SDS011;35714;55.708;37.478;2023-04-24T12:58:32;4.32;;;2.08;;
49824;SDS011;35714;55.708;37.478;2023-04-24T13:00:58;4.20;;;1.92;;
49824;SDS011;35714;55.708;37.478;2023-04-24T13:03:24;5.13;;;1.92;;
49824;SDS011;35714;55.708;37.478;2023-04-24T13:05:49;6.28;;;2.58;;
49824;SDS011;35714;55.708;37.478;2023-04-24T13:08:15;3.20;;;1.90;;
49824;SDS011;35714;55.708;37.478;2023-04-24T13:10:41;4.78;;;2.20;;
49824;SDS011;35714;55.708;37.478;2023-04-24T13:13:07;5.28;;;2.10;;
49824;SDS011;35714;55.708;37.478;2023-04-24T13:15:35;4.15;;;2.10;;
49824;SDS011;35714;55.708;37.478;2023-04-24T13:18:01;6.28;;;2.40;;
49824;SDS011;35714;55.708;37.478;2023-04-24T13:20:27;6.05;;;2.42;;
49824;SDS011;35714;55.708;37.478;2023-04-24T13:22:52;12.80;;;2.70;;
49824;SDS011;35714;55.708;37.478;2023-04-24T13:25:18;6.90;;;2.65;;
49824;SDS011;35714;55.708;37.478;2023-04-24T13:27:46;7.75;;;2.50;;
49824;SDS011;35714;55.708;37.478;2023-04-24T13:30:12;7.93;;;3.50;;
49824;SDS011;35714;55.708;37.478;2023-04-24T13:32:38;6.03;;;2.78;;
49824;SDS011;35714;55.708;37.478;2023-04-24T13:35:03;7.55;;;2.63;;
49824;SDS011;35714;55.708;37.478;2023-04-24T13:37:32;8.45;;;4.20;;
49824;SDS011;35714;55.708;37.478;2023-04-24T13:39:58;8.25;;;3.17;;
49824;SDS011;35714;55.708;37.478;2023-04-24T13:42:23;7.90;;;2.53;;
49824;SDS011;35714;55.708;37.478;2023-04-24T13:44:49;11.63;;;2.90;;
49824;SDS011;35714;55.708;37.478;2023-04-24T13:47:16;11.90;;;2.40;;
49824;SDS011;35714;55.708;37.478;2023-04-24T13:49:41;6.43;;;2.33;;
49824;SDS011;35714;55.708;37.478;2023-04-24T13:52:07;10.23;;;3.15;;
49824;SDS011;35714;55.708;37.478;2023-04-24T13:54:33;7.70;;;2.40;;
49824;SDS011;35714;55.708;37.478;2023-04-24T13:56:59;9.40;;;2.70;;
49824;SDS011;35714;55.708;37.478;2023-04-24T13:59:25;5.53;;;2.30;;
49824;SDS011;35714;55.708;37.478;2023-04-24T14:01:51;6.57;;;2.63;;
49824;SDS011;35714;55.708;37.478;2023-04-24T14:04:17;7.57;;;2.10;;
49824;SDS011;35714;55.708;37.478;2023-04-24T14:06:43;6.93;;;2.20;;
49824;SDS011;35714;55.708;37.478;2023-04-24T14:09:09;8.38;;;2.60;;
49824;SDS011;35714;55.708;37.478;2023-04-24T14:11:34;7.63;;;2.63;;
49824;SDS011;35714;55.708;37.478;2023-04-24T14:14:00;6.60;;;2.63;;
49824;SDS011;35714;55.708;37.478;2023-04-24T14:16:26;6.47;;;2.33;;
49824;SDS011;35714;55.708;37.478;2023-04-24T14:18:52;6.97;;;2.65;;
49824;SDS011;35714;55.708;37.478;2023-04-24T14:21:17;7.45;;;2.55;;
49824;SDS011;35714;55.708;37.478;2023-04-24T14:23:43;11.13;;;2.88;;
49824;SDS011;35714;55.708;37.478;2023-04-24T14:26:09;10.40;;;3.03;;
49824;SDS011;35714;55.708;37.478;2023-04-24T14:28:35;7.82;;;2.72;;
49824;SDS011;35714;55.708;37.478;2023-04-24T14:31:01;7.68;;;2.90;;
49824;SDS011;35714;55.708;37.478;2023-04-24T14:33:26;9.10;;;2.63;;
49824;SDS011;35714;55.708;37.478;2023-04-24T14:35:52;7.45;;;2.47;;
49824;SDS011;35714;55.708;37.478;2023-04-24T14:38:18;7.32;;;2.42;;
49824;SDS011;35714;55.708;37.478;2023-04-24T14:40:43;5.97;;;2.17;;
49824;SDS011;35714;55.708;37.478;2023-04-24T14:43:09;5.82;;;2.00;;
49824;SDS011;35714;55.708;37.478;2023-04-24T14:45:34;5.57;;;2.10;;
49824;SDS011;35714;55.708;37.478;2023-04-24T14:48:02;4.60;;;1.80;;